Aeroporto :
LOGIN :

Iscrizione | Disclaimer

   EN    FR    IT 

 










Sommario :    VFR   VFR Marginale   IFR   IFR Intensivo   IFR Molto Intensivo
Visibilità : 
Base nubi : 
>= 8 km
>= 3000ft
5 / 8 km
1000 / 3000 ft
1500m / 5 km
500 / 1000 ft
800 / 1500m
200 / 500 ft
< 800m
< 200 ft
Simboli :   Temporali  Nebbia  Neve Forte  Precipitazioni Forti  Vento > 20 kt
SIGMETs :   Varie  Temporali  Ghiacco  Turbolenza  Onda orograficha  Ceneri Vulcaniche






- Altitudine del aeroporto : 995 ft
- Codice IATA : KTW


EPKT - Katowice

ULTIMO METAR :
  • 211330Z 11013KT 9999 -RA SCT010 10/08 Q1012

METARs OBSOLETI :
  • 211300Z 11013KT 9999 -RA FEW009 BKN010 10/08 Q1012
  • 211230Z 10012KT 9999 -RA SCT007 OVC010 10/09 Q1012
  • 211200Z 10010KT 9999 -RA SCT006 BKN008 10/09 Q1012
  • 211130Z 10011KT 6000 -RA SCT006 BKN009 BKN037 09/09 Q1012
  • 211100Z 12011KT 6000 -RA FEW007 SCT010 BKN043 10/08 Q1013

TAF TAF EPKT
Valido dal 21 a 12 ore il 22 a 12 ore UTC


211130Z 2112/2212 13010KT 6000 BKN020
TEMPO 2112/2118 4000 BR BKN006 BKN013
PROB40 2123/2207 4000 BR BKN012



MetMap, La meteo Aeronautica in un colpo d'occhio ! - Copyright ORBIFLY Dicembre 2007 - Disclaimer

ORBIFLY MET'MAP TEAM :

Programmazione e sviluppo : Alexandra Zaïnal
Concezione e sviluppo : Baudouin d'Aumeries
Co-Programmazione e sviluppo : Marc-Olivier Méhu
Supporto tecnico e logistico : Manuel Goepfert
Aiuto per la traduzione : Arnaldo La Scala

Contatto : metmap@orbifly.com




FONTI E CREDITI :

   NOAA